LIBP/PSR METAR and TAF weather

Enter ICAO airport designator
Station Type Date Time Source
LIBP METAR 2021/07/24 19:50 UTC NOAA

LIBP 241950Z AUTO 33004KT 9999 BKN160/// BKN210/// 28/17 Q1012


Station Type Date Time Source
LIBP Decoded METAR 2021/07/24 19:50 UTC NOAA

Pescara, Italy (LIBP) 42-26N 014-12E 11M
Jul 24, 2021 - 03:50 PM EDT / 2021.07.24 1950 UTC
Wind: from the NNW (330 degrees) at 5 MPH (4 KT):0
Visibility: greater than 7 mile(s):0
Sky conditions: mostly cloudy
Temperature: 82 F (28 C)
Dew Point: 62 F (17 C)
Relative Humidity: 51%
Pressure (altimeter): 29.88 in. Hg (1012 hPa)
ob: LIBP 241950Z AUTO 33004KT 9999 BKN160/// BKN210/// 28/17 Q1012
cycle: 20

Station Type Date Time Source
LIBP TAF 2021/07/24 18:21 UTC NOAA

TAF LIBP 241700Z 2418/2518 VRB04KT CAVOK
BECMG 2509/2511 07010KT

Example: see airport list